Time,TemperatureF,DewpointF,PressureIn,WindDirection,WindDirectionDegrees,WindSpeedMPH,WindSpeedGustMPH,Humidity,HourlyPrecipIn,Conditions,Clouds,dailyrainin,SoftwareType,DateUTC
2013-02-21 00:03:00,31.5,24.1,29.97,ESE,112,0.0,-999.0,74,-99.99,,,0.00,Acu-Link.com,2013-02-21 05:03:00,
2013-02-21 00:18:00,32.0,22.3,29.96,NE,45,0.0,-999.0,67,-99.99,,,0.00,Acu-Link.com,2013-02-21 05:18:00,
2013-02-21 00:33:00,32.4,24.4,29.96,NE,45,0.0,-999.0,72,-99.99,,,0.00,Acu-Link.com,2013-02-21 05:33:00,
2013-02-21 00:48:00,32.4,26.0,29.97,NE,45,0.0,-999.0,77,-99.99,,,0.00,Acu-Link.com,2013-02-21 05:48:00,
2013-02-21 01:04:00,32.2,26.4,29.96,ENE,67,0.0,-999.0,79,-99.99,,,0.00,Acu-Link.com,2013-02-21 06:04:00,
2013-02-21 01:19:00,32.4,26.9,29.95,NE,45,0.0,-999.0,80,-99.99,,,0.00,Acu-Link.com,2013-02-21 06:19:00,
2013-02-21 01:34:00,32.4,26.3,29.96,NE,45,0.0,-999.0,78,-99.99,,,0.00,Acu-Link.com,2013-02-21 06:34:00,
2013-02-21 01:50:00,32.2,26.1,29.96,NE,45,0.0,-999.0,78,-99.99,,,0.00,Acu-Link.com,2013-02-21 06:50:00,
2013-02-21 02:05:00,32.2,26.1,29.95,NE,45,0.0,-999.0,78,-99.99,,,0.00,Acu-Link.com,2013-02-21 07:05:00,
2013-02-21 02:20:00,31.6,25.6,29.96,NE,45,0.0,-999.0,78,-99.99,,,0.00,Acu-Link.com,2013-02-21 07:20:00,
2013-02-21 02:35:00,30.4,25.3,29.96,NE,45,0.0,-999.0,81,-99.99,,,0.00,Acu-Link.com,2013-02-21 07:35:00,
2013-02-21 02:50:00,29.7,24.6,29.97,NE,45,0.0,-999.0,81,-99.99,,,0.00,Acu-Link.com,2013-02-21 07:50:00,
2013-02-21 03:06:00,28.9,23.6,29.97,NE,45,0.0,-999.0,80,-99.99,,,0.00,Acu-Link.com,2013-02-21 08:06:00,
2013-02-21 03:21:00,27.9,23.9,29.97,NE,45,0.0,-999.0,85,-99.99,,,0.00,Acu-Link.com,2013-02-21 08:21:00,
2013-02-21 03:36:00,27.3,24.2,29.97,NE,45,0.0,-999.0,88,-99.99,,,0.00,Acu-Link.com,2013-02-21 08:36:00,
2013-02-21 03:51:00,27.5,25.0,29.98,NE,45,0.0,-999.0,90,-99.99,,,0.00,Acu-Link.com,2013-02-21 08:51:00,
2013-02-21 04:21:00,26.8,24.2,29.98,NE,45,0.0,-999.0,90,-99.99,,,0.00,Acu-Link.com,2013-02-21 09:21:00,
2013-02-21 04:36:00,25.9,24.1,29.98,NE,45,0.0,-999.0,93,-99.99,,,0.00,Acu-Link.com,2013-02-21 09:36:00,
2013-02-21 04:51:00,25.3,24.1,29.99,NE,45,0.0,-999.0,95,-99.99,,,0.00,Acu-Link.com,2013-02-21 09:51:00,
2013-02-21 05:06:00,25.7,24.2,29.99,NE,45,0.0,-999.0,94,-99.99,,,0.00,Acu-Link.com,2013-02-21 10:06:00,
2013-02-21 05:21:00,25.3,23.9,29.99,NE,45,0.0,-999.0,94,-99.99,,,0.00,Acu-Link.com,2013-02-21 10:21:00,
2013-02-21 05:37:00,25.5,24.0,30.00,NE,45,0.0,-999.0,94,-99.99,,,0.00,Acu-Link.com,2013-02-21 10:37:00,
2013-02-21 05:52:00,25.3,23.9,30.00,NE,45,0.0,-999.0,94,-99.99,,,0.00,Acu-Link.com,2013-02-21 10:52:00,
2013-02-21 06:07:00,24.8,23.6,30.01,NE,45,0.0,-999.0,95,-99.99,,,0.00,Acu-Link.com,2013-02-21 11:07:00,
2013-02-21 06:23:00,24.6,23.4,30.01,NE,45,0.0,-999.0,95,-99.99,,,0.00,Acu-Link.com,2013-02-21 11:23:00,
2013-02-21 06:38:00,24.4,23.2,30.02,NE,45,0.0,-999.0,95,-99.99,,,0.00,Acu-Link.com,2013-02-21 11:38:00,
2013-02-21 06:53:00,24.3,23.0,30.02,NE,45,0.0,-999.0,95,-99.99,,,0.00,Acu-Link.com,2013-02-21 11:53:00,
2013-02-21 07:08:00,24.3,23.3,30.04,NE,45,0.0,-999.0,96,-99.99,,,0.00,Acu-Link.com,2013-02-21 12:08:00,
2013-02-21 07:23:00,23.7,22.7,30.04,NE,45,0.0,-999.0,96,-99.99,,,0.00,Acu-Link.com,2013-02-21 12:23:00,
2013-02-21 07:38:00,24.1,23.6,30.04,NE,45,0.0,-999.0,98,-99.99,,,0.00,Acu-Link.com,2013-02-21 12:38:00,
2013-02-21 07:53:00,24.6,24.1,30.04,NE,45,0.0,-999.0,98,-99.99,,,0.00,Acu-Link.com,2013-02-21 12:53:00,
2013-02-21 08:09:00,25.5,25.0,30.04,NE,45,0.0,-999.0,98,-99.99,,,0.00,Acu-Link.com,2013-02-21 13:09:00,
2013-02-21 08:24:00,26.6,26.1,30.04,NE,45,0.0,-999.0,98,-99.99,,,0.00,Acu-Link.com,2013-02-21 13:24:00,
2013-02-21 08:39:00,28.8,25.4,30.05,NE,45,0.0,-999.0,87,-99.99,,,0.00,Acu-Link.com,2013-02-21 13:39:00,
2013-02-21 08:54:00,31.5,22.5,30.05,NW,315,0.0,-999.0,69,-99.99,,,0.00,Acu-Link.com,2013-02-21 13:54:00,
2013-02-21 09:09:00,33.8,21.0,30.05,NNW,337,0.0,-999.0,59,-99.99,,,0.00,Acu-Link.com,2013-02-21 14:09:00,
2013-02-21 09:24:00,35.6,19.3,30.06,NNW,337,1.6,-999.0,51,-99.99,,,0.00,Acu-Link.com,2013-02-21 14:24:00,
2013-02-21 09:40:00,37.4,18.5,30.05,WNW,292,2.2,-999.0,46,-99.99,,,0.00,Acu-Link.com,2013-02-21 14:40:00,
2013-02-21 09:55:00,39.2,19.1,30.05,NNE,22,3.1,-999.0,44,-99.99,,,0.00,Acu-Link.com,2013-02-21 14:55:00,
2013-02-21 10:10:00,40.5,18.1,30.04,NNE,22,0.0,-999.0,40,-99.99,,,0.00,Acu-Link.com,2013-02-21 15:10:00,
2013-02-21 10:25:00,42.3,18.5,30.03,SSW,202,0.0,-999.0,38,-99.99,,,0.00,Acu-Link.com,2013-02-21 15:25:00,
2013-02-21 10:41:00,44.6,19.3,30.03,North,0,2.7,-999.0,36,-99.99,,,0.00,Acu-Link.com,2013-02-21 15:41:00,
2013-02-21 10:56:00,46.8,19.2,30.03,NW,315,2.7,-999.0,33,-99.99,,,0.00,Acu-Link.com,2013-02-21 15:56:00,
2013-02-21 11:11:00,45.5,18.1,30.03,NNE,22,2.2,-999.0,33,-99.99,,,0.00,Acu-Link.com,2013-02-21 16:11:00,
2013-02-21 11:26:00,47.1,18.8,30.03,North,0,2.7,-999.0,32,-99.99,,,0.00,Acu-Link.com,2013-02-21 16:26:00,
2013-02-21 11:42:00,48.6,19.3,30.03,North,0,2.2,-999.0,31,-99.99,,,0.00,Acu-Link.com,2013-02-21 16:42:00,
2013-02-21 11:57:00,48.4,17.6,30.02,NNE,22,5.1,-999.0,29,-99.99,,,0.00,Acu-Link.com,2013-02-21 16:57:00,
2013-02-21 12:27:00,50.2,19.2,30.00,North,0,2.7,-999.0,29,-99.99,,,0.00,Acu-Link.com,2013-02-21 17:27:00,
2013-02-21 12:43:00,50.4,18.5,30.00,NE,45,2.2,-999.0,28,-99.99,,,0.00,Acu-Link.com,2013-02-21 17:43:00,
2013-02-21 12:58:00,50.7,18.8,29.99,West,270,4.7,-999.0,28,-99.99,,,0.00,Acu-Link.com,2013-02-21 17:58:00,
2013-02-21 13:13:00,53.2,19.3,29.98,WNW,292,3.8,-999.0,26,-99.99,,,0.00,Acu-Link.com,2013-02-21 18:13:00,
2013-02-21 13:29:00,52.2,19.2,29.97,NNE,22,2.7,-999.0,27,-99.99,,,0.00,Acu-Link.com,2013-02-21 18:29:00,
2013-02-21 13:44:00,52.0,19.1,29.96,WNW,292,1.1,-999.0,27,-99.99,,,0.00,Acu-Link.com,2013-02-21 18:44:00,
2013-02-21 13:59:00,52.3,19.4,29.96,NNW,337,2.7,-999.0,27,-99.99,,,0.00,Acu-Link.com,2013-02-21 18:59:00,
2013-02-21 14:15:00,51.8,18.0,29.94,North,0,2.2,-999.0,26,-99.99,,,0.00,Acu-Link.com,2013-02-21 19:15:00,
2013-02-21 14:30:00,53.1,18.2,29.95,NNE,22,4.3,-999.0,25,-99.99,,,0.00,Acu-Link.com,2013-02-21 19:30:00,
2013-02-21 14:45:00,53.1,17.2,29.94,West,270,2.2,-999.0,24,-99.99,,,0.00,Acu-Link.com,2013-02-21 19:45:00,
2013-02-21 15:00:00,52.7,16.9,29.94,NNW,337,2.7,-999.0,24,-99.99,,,0.00,Acu-Link.com,2013-02-21 20:00:00,
2013-02-21 15:15:00,53.2,17.4,29.94,NNW,337,2.7,-999.0,24,-99.99,,,0.00,Acu-Link.com,2013-02-21 20:15:00,
2013-02-21 15:31:00,52.3,16.6,29.94,NNW,337,4.3,-999.0,24,-99.99,,,0.00,Acu-Link.com,2013-02-21 20:31:00,
2013-02-21 15:46:00,53.2,17.4,29.94,NNE,22,2.2,-999.0,24,-99.99,,,0.00,Acu-Link.com,2013-02-21 20:46:00,
2013-02-21 16:01:00,52.7,17.9,29.94,WSW,247,0.0,-999.0,25,-99.99,,,0.00,Acu-Link.com,2013-02-21 21:01:00,
2013-02-21 16:16:00,52.5,19.5,29.94,NNW,337,0.0,-999.0,27,-99.99,,,0.00,Acu-Link.com,2013-02-21 21:16:00,
2013-02-21 16:32:00,52.5,18.6,29.95,West,270,0.0,-999.0,26,-99.99,,,0.00,Acu-Link.com,2013-02-21 21:32:00,
2013-02-21 16:47:00,52.0,19.1,29.94,WNW,292,2.2,-999.0,27,-99.99,,,0.00,Acu-Link.com,2013-02-21 21:47:00,
2013-02-21 17:02:00,51.4,19.4,29.96,WNW,292,0.0,-999.0,28,-99.99,,,0.00,Acu-Link.com,2013-02-21 22:02:00,
2013-02-21 17:17:00,50.9,19.0,29.96,NNW,337,1.1,-999.0,28,-99.99,,,0.00,Acu-Link.com,2013-02-21 22:17:00,
2013-02-21 17:33:00,50.4,19.3,29.98,NNE,22,1.6,-999.0,29,-99.99,,,0.00,Acu-Link.com,2013-02-21 22:33:00,
2013-02-21 17:48:00,49.1,20.5,29.98,North,0,1.1,-999.0,32,-99.99,,,0.00,Acu-Link.com,2013-02-21 22:48:00,
2013-02-21 18:03:00,48.0,21.0,29.99,NNW,337,0.0,-999.0,34,-99.99,,,0.00,Acu-Link.com,2013-02-21 23:03:00,
2013-02-21 18:18:00,46.6,21.7,29.99,NNE,22,1.1,-999.0,37,-99.99,,,0.00,Acu-Link.com,2013-02-21 23:18:00,
2013-02-21 18:34:00,45.5,22.6,29.99,NNE,22,0.0,-999.0,40,-99.99,,,0.00,Acu-Link.com,2013-02-21 23:34:00,
2013-02-21 18:49:00,45.1,20.4,29.98,NNE,22,1.1,-999.0,37,-99.99,,,0.00,Acu-Link.com,2013-02-21 23:49:00,
2013-02-21 19:04:00,45.5,20.8,29.97,NNE,22,2.2,-999.0,37,-99.99,,,0.00,Acu-Link.com,2013-02-22 00:04:00,
2013-02-21 19:20:00,45.5,20.8,30.00,South,180,0.0,-999.0,37,-99.99,,,0.00,Acu-Link.com,2013-02-22 00:20:00,
2013-02-21 19:35:00,45.0,20.9,30.02,NNE,22,0.0,-999.0,38,-99.99,,,0.00,Acu-Link.com,2013-02-22 00:35:00,
2013-02-21 19:50:00,44.2,21.5,30.03,NNW,337,0.0,-999.0,40,-99.99,,,0.00,Acu-Link.com,2013-02-22 00:50:00,
2013-02-21 20:05:00,43.3,24.0,30.04,NNW,337,0.0,-999.0,46,-99.99,,,0.00,Acu-Link.com,2013-02-22 01:05:00,
2013-02-21 20:20:00,42.1,24.3,30.04,NNW,337,0.0,-999.0,49,-99.99,,,0.00,Acu-Link.com,2013-02-22 01:20:00,
2013-02-21 20:35:00,41.5,24.8,30.04,NNW,337,0.0,-999.0,51,-99.99,,,0.00,Acu-Link.com,2013-02-22 01:35:00,
2013-02-21 20:51:00,41.2,27.1,30.04,NNE,22,0.0,-999.0,57,-99.99,,,0.00,Acu-Link.com,2013-02-22 01:51:00,
2013-02-21 21:06:00,41.0,27.4,30.04,NE,45,0.0,-999.0,58,-99.99,,,0.00,Acu-Link.com,2013-02-22 02:06:00,
2013-02-21 21:21:00,41.5,22.8,30.03,NNE,22,1.6,-999.0,47,-99.99,,,0.00,Acu-Link.com,2013-02-22 02:21:00,
2013-02-21 21:36:00,42.6,22.3,30.03,North,0,0.0,-999.0,44,-99.99,,,0.00,Acu-Link.com,2013-02-22 02:36:00,
2013-02-21 21:51:00,43.0,21.5,30.04,NE,45,2.2,-999.0,42,-99.99,,,0.00,Acu-Link.com,2013-02-22 02:51:00,
2013-02-21 22:07:00,43.7,21.6,30.05,North,0,3.8,-999.0,41,-99.99,,,0.00,Acu-Link.com,2013-02-22 03:07:00,
2013-02-21 22:22:00,43.9,22.3,30.05,WNW,292,1.6,-999.0,42,-99.99,,,0.00,Acu-Link.com,2013-02-22 03:22:00,
2013-02-21 22:37:00,43.5,22.0,30.06,NNE,22,0.0,-999.0,42,-99.99,,,0.00,Acu-Link.com,2013-02-22 03:37:00,
2013-02-21 22:52:00,43.0,22.0,30.08,North,0,0.0,-999.0,43,-99.99,,,0.00,Acu-Link.com,2013-02-22 03:52:00,
2013-02-21 23:07:00,42.6,21.7,30.08,North,0,0.0,-999.0,43,-99.99,,,0.00,Acu-Link.com,2013-02-22 04:07:00,
2013-02-21 23:23:00,42.4,21.5,30.09,NE,45,2.2,-999.0,43,-99.99,,,0.00,Acu-Link.com,2013-02-22 04:23:00,
2013-02-21 23:38:00,42.3,21.9,30.07,NNE,22,3.8,-999.0,44,-99.99,,,0.00,Acu-Link.com,2013-02-22 04:38:00,
2013-02-21 23:53:00,42.1,21.8,30.07,NE,45,3.1,-999.0,44,-99.99,,,0.00,Acu-Link.com,2013-02-22 04:53:00,